KBJI

Bemidji Regional Airport

Bemidji, Minnesota, USA
METAR KBJI 211556Z AUTO 15015KT 7SM OVC043 M16/M22 A3015 RMK AO2 T11641222
Observed Flight Rules
Jan-21 @ 15:56 UTC (33 minutes ago) Visual Flight Rules
Wind Visibility Clouds
150° at 15 knots 7 miles
  • Overcast at 4,300' AGL
Temperatures Readings
Current -16°C / 3°F
Dewpoint -22°C / -8°F
Humidity 60%
Altimeter 30.15" Hg
Pressure 1021.02 hPa
Elevation 420
METAR KBJI 211556Z AUTO 15015KT 7SM OVC043 M16/M22 A3015 RMK AO2 T11641222
Observed Flight Rules
Jan-21 @ 15:56 UTC
(33 minutes ago)
VFR
Wind Visibility
150° at 15 knots 7 miles
Clouds
  • Overcast at 4,300' AGL
Temperature Dewpoint
-16°C / 3°F -22°C / -8°F
Humidity Altimeter Pressure
60% 30.15" Hg 1021.02 hPa